createdAt,value
2018-12-26T00:14:24.059Z,13.38
2018-12-26T00:16:52.731Z,13.25
2018-12-26T00:19:21.434Z,13.25
2018-12-26T00:27:20.819Z,13.45
2018-12-26T00:30:08.841Z,13.18
2018-12-26T00:32:38.911Z,12.80
2018-12-26T00:46:46.195Z,13.43
2018-12-26T00:49:24.405Z,12.50
2018-12-26T00:56:30.597Z,13.10
2018-12-26T00:58:59.856Z,12.33
2018-12-26T01:01:28.852Z,12.85
2018-12-26T01:03:57.863Z,13.15
2018-12-26T01:06:27.752Z,14.47
2018-12-26T01:08:56.653Z,14.50
2018-12-26T01:11:27.827Z,13.72
2018-12-26T01:13:56.889Z,13.20
2018-12-26T01:19:02.867Z,12.93
2018-12-26T01:21:32.156Z,13.28
2018-12-26T01:24:00.794Z,12.60
2018-12-26T01:26:29.476Z,13.05
2018-12-26T01:28:58.134Z,13.28
2018-12-26T01:31:26.811Z,13.78
2018-12-26T01:33:55.430Z,13.60
2018-12-26T01:36:24.078Z,14.93
2018-12-26T01:38:52.736Z,13.78
2018-12-26T01:41:21.426Z,13.75
2018-12-26T01:43:50.048Z,14.80
2018-12-26T01:46:18.720Z,14.58
2018-12-26T01:48:47.361Z,13.80
2018-12-26T01:51:16.089Z,15.35
2018-12-26T01:53:44.769Z,15.23
2018-12-26T01:56:13.558Z,15.98
2018-12-26T01:58:42.190Z,16.32
2018-12-26T02:01:10.869Z,16.42
2018-12-26T02:03:39.509Z,15.85
2018-12-26T02:06:08.161Z,15.90
2018-12-26T02:08:36.856Z,18.98
2018-12-26T02:11:05.536Z,16.12
2018-12-26T02:13:34.242Z,15.45
2018-12-26T02:16:02.912Z,14.00
2018-12-26T02:18:31.543Z,14.18
2018-12-26T02:21:00.511Z,15.25
2018-12-26T02:23:29.243Z,14.95
2018-12-26T02:25:57.918Z,14.65
2018-12-26T02:28:26.577Z,13.50
2018-12-26T02:30:55.258Z,15.30
2018-12-26T02:33:23.883Z,13.30
2018-12-26T02:35:52.527Z,12.73
2018-12-26T02:38:21.170Z,13.25
2018-12-26T02:40:49.904Z,14.05
2018-12-26T02:43:18.548Z,13.40
2018-12-26T02:45:47.206Z,14.15
2018-12-26T02:48:15.937Z,13.60
2018-12-26T02:50:44.551Z,14.80
2018-12-26T02:53:13.198Z,13.95
2018-12-26T02:55:41.954Z,14.70
2018-12-26T02:58:10.642Z,15.90
2018-12-26T03:00:39.292Z,15.60
2018-12-26T03:03:07.908Z,15.00
2018-12-26T03:05:36.536Z,15.38
2018-12-26T03:08:05.289Z,15.38
2018-12-26T03:10:33.953Z,13.80
2018-12-26T03:13:02.582Z,14.28
2018-12-26T03:15:31.241Z,16.48
2018-12-26T03:17:59.922Z,16.15
2018-12-26T03:20:28.632Z,14.95
2018-12-26T03:22:57.351Z,14.50
2018-12-26T03:25:25.999Z,14.80
2018-12-26T03:27:54.671Z,14.95
2018-12-26T03:30:23.350Z,15.38
2018-12-26T03:32:52.004Z,15.50
2018-12-26T03:35:20.805Z,14.47
2018-12-26T03:37:49.507Z,14.65
2018-12-26T03:40:18.264Z,14.03
2018-12-26T03:42:47.009Z,13.72
2018-12-26T03:45:55.467Z,15.80
2018-12-26T03:48:24.180Z,14.60
2018-12-26T03:50:53.047Z,14.85
2018-12-26T03:53:21.833Z,17.23
2018-12-26T03:55:50.498Z,14.00
2018-12-26T03:58:19.203Z,15.40
2018-12-26T04:00:47.947Z,14.73
2018-12-26T04:03:16.656Z,15.05
2018-12-26T04:05:45.409Z,15.85
2018-12-26T04:08:14.141Z,16.67
2018-12-26T04:10:42.907Z,15.95
2018-12-26T04:13:11.615Z,17.60
2018-12-26T04:15:40.327Z,17.42
2018-12-26T04:18:09.077Z,16.00
2018-12-26T04:20:37.724Z,17.75
2018-12-26T04:23:06.471Z,16.90
2018-12-26T04:25:35.275Z,16.93
2018-12-26T04:28:03.950Z,18.23
2018-12-26T04:30:32.615Z,17.50
2018-12-26T04:33:01.270Z,18.75
2018-12-26T04:35:29.910Z,18.42
2018-12-26T04:37:58.574Z,18.48
2018-12-26T04:40:27.234Z,20.00
2018-12-26T04:42:55.890Z,20.88
2018-12-26T04:45:24.547Z,21.70
2018-12-26T04:47:53.278Z,22.17
2018-12-26T04:50:21.887Z,22.62
2018-12-26T04:52:50.544Z,21.65
2018-12-26T04:55:19.258Z,24.18
2018-12-26T04:57:47.925Z,22.50
2018-12-26T05:00:16.586Z,25.90
2018-12-26T05:02:45.321Z,26.30
2018-12-26T05:05:14.004Z,26.23
2018-12-26T05:07:42.685Z,26.95
2018-12-26T05:10:11.325Z,24.55
2018-12-26T05:12:39.959Z,25.05
2018-12-26T05:15:08.787Z,25.08
2018-12-26T05:17:37.537Z,24.37
2018-12-26T05:20:06.361Z,24.75
2018-12-26T05:22:35.025Z,24.35
2018-12-26T05:25:03.794Z,22.13
2018-12-26T05:27:34.307Z,25.17
2018-12-26T05:30:02.882Z,25.80
2018-12-26T05:32:31.638Z,28.42
2018-12-26T05:35:00.350Z,27.80
2018-12-26T05:37:29.122Z,27.60
2018-12-26T05:39:57.748Z,26.05
2018-12-26T05:42:26.441Z,25.95
2018-12-26T05:44:55.113Z,26.97
2018-12-26T05:47:23.782Z,27.17
2018-12-26T05:49:52.409Z,26.15
2018-12-26T05:52:21.103Z,30.20
2018-12-26T05:54:49.791Z,27.05
2018-12-26T05:57:18.478Z,25.75
2018-12-26T05:59:47.151Z,26.27
2018-12-26T06:02:15.825Z,26.70
2018-12-26T06:04:44.541Z,26.05
2018-12-26T06:07:13.249Z,27.07
2018-12-26T06:09:41.926Z,28.57
2018-12-26T06:12:11.543Z,28.12
2018-12-26T06:14:40.966Z,26.65
2018-12-26T06:17:09.645Z,27.35
2018-12-26T06:19:38.325Z,27.30
2018-12-26T06:22:07.020Z,27.30
2018-12-26T06:24:35.691Z,25.65
2018-12-26T06:27:04.408Z,24.90
2018-12-26T06:29:33.095Z,25.10
2018-12-26T06:32:01.735Z,22.90
2018-12-26T06:34:30.409Z,23.27
2018-12-26T06:36:59.086Z,24.77
2018-12-26T06:39:27.751Z,25.88
2018-12-26T06:41:56.428Z,23.83
2018-12-26T06:44:25.084Z,22.85
2018-12-26T06:46:53.848Z,21.35
2018-12-26T06:49:22.632Z,20.97
2018-12-26T06:51:51.325Z,22.52
2018-12-26T06:54:20.030Z,22.40
2018-12-26T06:56:48.767Z,21.12
2018-12-26T06:59:17.450Z,21.52
2018-12-26T07:01:46.072Z,19.98
2018-12-26T07:04:14.755Z,22.85
2018-12-26T07:06:43.399Z,21.62
2018-12-26T07:09:12.091Z,22.60
2018-12-26T07:11:40.737Z,22.07
2018-12-26T07:14:28.696Z,24.75
2018-12-26T07:16:57.395Z,22.62
2018-12-26T07:19:26.067Z,23.77
2018-12-26T07:21:54.721Z,22.87
2018-12-26T07:24:23.490Z,24.07
2018-12-26T07:26:52.156Z,22.50
2018-12-26T07:29:20.883Z,24.47
2018-12-26T07:31:49.511Z,24.75
2018-12-26T07:34:18.287Z,23.38
2018-12-26T07:36:46.954Z,24.47
2018-12-26T07:39:15.716Z,21.82
2018-12-26T07:41:44.406Z,21.17
2018-12-26T07:44:13.073Z,24.43
2018-12-26T07:46:41.751Z,23.87
2018-12-26T07:49:10.436Z,22.70
2018-12-26T07:51:39.104Z,24.02
2018-12-26T07:54:07.802Z,21.42
2018-12-26T07:56:36.425Z,25.52
2018-12-26T07:59:05.194Z,23.30
2018-12-26T08:01:33.849Z,22.10
2018-12-26T08:04:02.485Z,25.02
2018-12-26T08:06:31.227Z,25.15
2018-12-26T08:08:59.872Z,23.22
2018-12-26T08:11:28.513Z,21.45
2018-12-26T08:13:57.272Z,25.75
2018-12-26T08:16:26.057Z,23.80
2018-12-26T08:18:54.859Z,24.65
2018-12-26T08:21:23.666Z,23.30
2018-12-26T08:23:52.463Z,22.75
2018-12-26T08:26:21.107Z,22.73
2018-12-26T08:28:49.847Z,22.58
2018-12-26T08:31:18.517Z,23.42
2018-12-26T08:33:47.166Z,20.77
2018-12-26T08:36:15.804Z,21.20
2018-12-26T08:38:44.537Z,22.20
2018-12-26T08:41:13.293Z,24.45
2018-12-26T08:43:41.937Z,21.80
2018-12-26T08:46:10.641Z,22.05
2018-12-26T08:48:39.329Z,21.60
2018-12-26T08:51:07.985Z,22.73
2018-12-26T08:53:36.655Z,24.25
2018-12-26T08:56:24.392Z,23.85
2018-12-26T08:58:53.410Z,27.35
2018-12-26T09:01:23.628Z,23.22
2018-12-26T09:03:52.259Z,21.97
2018-12-26T09:06:20.918Z,25.52
2018-12-26T09:08:49.557Z,23.32
2018-12-26T09:11:18.218Z,20.85
2018-12-26T09:13:46.870Z,23.70
2018-12-26T09:16:15.565Z,24.32
2018-12-26T09:18:44.193Z,23.15
2018-12-26T09:21:12.950Z,23.47
2018-12-26T09:23:41.688Z,20.52
2018-12-26T09:26:12.020Z,20.50
2018-12-26T09:28:43.886Z,22.58
2018-12-26T09:31:11.209Z,22.75
2018-12-26T09:33:39.905Z,21.85
2018-12-26T10:10:01.722Z,18.55
2018-12-26T10:12:30.827Z,18.05
2018-12-26T10:15:07.668Z,19.57
2018-12-26T10:18:00.413Z,20.88
2018-12-26T10:20:32.586Z,21.95
2018-12-26T10:30:31.024Z,22.80
2018-12-26T10:35:15.060Z,22.40
2018-12-26T10:40:33.570Z,17.55
2018-12-26T10:43:02.539Z,19.37
2018-12-26T10:50:44.405Z,19.70
2018-12-26T10:53:13.975Z,19.65
2018-12-26T10:55:49.878Z,21.82
2018-12-26T11:16:58.149Z,14.95
2018-12-26T11:20:41.224Z,17.02
2018-12-26T12:19:28.919Z,16.77
2018-12-26T12:39:49.046Z,17.70
2018-12-26T12:42:20.121Z,18.15
2018-12-26T12:48:08.945Z,18.85
2018-12-26T13:33:40.749Z,17.50
2018-12-26T13:51:00.697Z,17.10
2018-12-26T13:59:43.112Z,19.00
2018-12-26T14:02:11.907Z,19.77
2018-12-26T14:04:40.722Z,20.70
2018-12-26T14:07:09.514Z,20.60
2018-12-26T14:09:38.336Z,19.15
2018-12-26T14:12:07.141Z,20.30
2018-12-26T14:14:55.145Z,20.88
2018-12-26T14:17:26.421Z,19.10
2018-12-26T14:26:54.744Z,21.90
2018-12-26T14:29:23.446Z,19.90
2018-12-26T14:55:15.746Z,20.57
2018-12-26T14:57:59.749Z,22.05
2018-12-26T15:35:24.174Z,23.20
2018-12-26T15:38:00.105Z,23.10
2018-12-26T15:41:16.538Z,21.10
2018-12-26T15:43:46.709Z,18.70
2018-12-26T15:46:15.343Z,21.25
2018-12-26T15:48:45.293Z,20.05
2018-12-26T15:51:15.677Z,19.95
2018-12-26T15:54:12.689Z,20.15
2018-12-26T16:03:25.951Z,23.92
2018-12-26T16:06:06.853Z,22.50
2018-12-26T16:07:04.277Z,20.27
2018-12-26T16:09:17.298Z,22.07
2018-12-26T16:12:07.417Z,21.10
2018-12-26T16:21:53.089Z,23.47
2018-12-26T16:24:14.011Z,21.42
2018-12-26T16:27:17.282Z,23.47
2018-12-26T16:30:05.250Z,22.52
2018-12-26T16:35:45.450Z,24.50
2018-12-26T16:39:22.671Z,23.98
2018-12-26T16:41:51.295Z,24.02
2018-12-26T16:44:27.668Z,23.83
2018-12-26T16:47:03.729Z,25.62
2018-12-26T16:49:37.838Z,27.93
2018-12-26T16:52:11.163Z,25.43
2018-12-26T17:09:04.246Z,26.02
2018-12-26T17:19:19.945Z,27.45
2018-12-26T17:36:52.252Z,28.02
2018-12-26T17:39:20.913Z,25.60
2018-12-26T17:41:50.887Z,26.45
2018-12-26T17:44:19.562Z,26.17
2018-12-26T17:46:48.243Z,23.92
2018-12-26T17:49:16.951Z,24.35
2018-12-26T17:51:45.626Z,29.48
2018-12-26T17:54:22.547Z,25.72
2018-12-26T17:56:58.056Z,25.50
2018-12-26T18:00:06.072Z,24.47
2018-12-26T18:03:14.085Z,24.07
2018-12-26T18:05:53.834Z,22.90
2018-12-26T18:09:16.218Z,26.57
2018-12-26T18:12:11.922Z,25.43
2018-12-26T18:16:19.249Z,25.72
2018-12-26T18:21:45.381Z,26.15
2018-12-26T23:47:55.411Z,20.80
2018-12-26T23:50:24.181Z,24.00
2018-12-26T23:52:52.807Z,21.15
2018-12-26T23:55:21.467Z,21.07
2018-12-26T23:57:50.339Z,23.30
